Time;durP1;ratioP1;P1;durP2;ratioP2;P2;SDS_P1;SDS_P2;PMS_P1;PMS_P2;Temp;Humidity;BMP_temperature;BMP_pressure;BME280_temperature;BME280_humidity;BME280_pressure;Samples;Min_cycle;Max_cycle;Signal;HPM_P1;HPM_P2
2023/09/24 00:02:10;;;;;;;4.17;3.17;;;;;;;10.65;100.00;98888.19;5074428;28;20235;-78
2023/09/24 00:04:37;;;;;;;5.27;3.23;;;;;;;10.63;100.00;98888.25;5073723;28;20211;-78
2023/09/24 00:07:04;;;;;;;4.00;3.33;;;;;;;10.59;100.00;98893.81;5073736;28;20207;-78
2023/09/24 00:09:31;;;;;;;3.87;3.20;;;;;;;10.57;100.00;98888.63;5074099;28;20231;-78
2023/09/24 00:11:59;;;;;;;4.50;3.33;;;;;;;10.54;100.00;98895.88;5074388;28;20239;-78
2023/09/24 00:14:26;;;;;;;5.43;3.50;;;;;;;10.49;100.00;98895.28;5074795;28;20669;-78
2023/09/24 00:16:52;;;;;;;4.67;3.77;;;;;;;10.43;100.00;98907.06;5074383;28;20264;-78
2023/09/24 00:19:19;;;;;;;5.27;3.87;;;;;;;10.42;100.00;98897.44;5074824;28;20593;-78
2023/09/24 00:21:46;;;;;;;4.53;3.57;;;;;;;10.37;100.00;98906.53;5074420;28;20254;-78
2023/09/24 00:24:13;;;;;;;4.90;3.57;;;;;;;10.34;100.00;98912.00;5074627;28;20234;-79
2023/09/24 00:26:39;;;;;;;4.87;3.60;;;;;;;10.34;100.00;98907.56;5074509;28;20792;-78
2023/09/24 00:29:08;;;;;;;5.87;3.40;;;;;;;10.33;100.00;98905.03;5074786;28;20208;-78
2023/09/24 00:31:34;;;;;;;4.50;2.90;;;;;;;10.35;100.00;98908.44;5074057;28;20235;-78
2023/09/24 00:34:01;;;;;;;3.77;2.93;;;;;;;10.35;100.00;98919.00;5074288;28;20579;-78
2023/09/24 00:36:27;;;;;;;5.53;3.17;;;;;;;10.33;100.00;98911.16;5074127;28;20713;-78
2023/09/24 00:38:54;;;;;;;3.43;3.10;;;;;;;10.35;100.00;98913.72;5074445;28;20213;-78
2023/09/24 00:41:20;;;;;;;5.17;3.30;;;;;;;10.32;100.00;98913.88;5074193;28;20232;-78
2023/09/24 00:43:46;;;;;;;4.17;3.20;;;;;;;10.31;100.00;98912.16;5074017;28;20234;-78
2023/09/24 00:46:16;;;;;;;4.23;3.60;;;;;;;10.29;100.00;98920.16;5074231;28;20237;-78
2023/09/24 00:48:43;;;;;;;3.37;3.07;;;;;;;10.31;100.00;98920.09;5074374;28;20233;-78
2023/09/24 00:51:16;;;;;;;3.90;3.30;;;;;;;10.30;100.00;98918.41;5073761;28;20227;-78
2023/09/24 00:53:43;;;;;;;3.67;3.30;;;;;;;10.28;100.00;98915.00;5073777;28;20207;-78
2023/09/24 00:56:10;;;;;;;4.57;3.33;;;;;;;10.22;100.00;98917.97;5073670;28;20224;-78
2023/09/24 00:58:37;;;;;;;5.27;3.83;;;;;;;10.11;100.00;98917.72;5073655;28;20207;-78
2023/09/24 01:01:04;;;;;;;5.23;3.57;;;;;;;10.02;100.00;98920.81;5073268;28;20224;-78
2023/09/24 01:03:32;;;;;;;3.83;3.43;;;;;;;9.92;100.00;98919.63;5073305;28;20238;-78
2023/09/24 01:05:58;;;;;;;3.70;2.93;;;;;;;9.78;100.00;98928.28;5073700;28;20221;-78
2023/09/24 01:08:31;;;;;;;4.30;3.27;;;;;;;9.67;100.00;98930.63;5073296;28;20219;-78
2023/09/24 01:10:58;;;;;;;5.07;3.63;;;;;;;9.63;100.00;98938.78;5073082;28;20727;-78
2023/09/24 01:13:26;;;;;;;5.00;3.53;;;;;;;9.61;100.00;98945.94;5072447;28;20216;-78
2023/09/24 01:15:53;;;;;;;5.97;3.70;;;;;;;9.58;100.00;98951.38;5072050;28;20584;-77
2023/09/24 01:18:21;;;;;;;4.83;3.50;;;;;;;9.56;100.00;98947.97;5072179;28;20222;-77
2023/09/24 01:20:49;;;;;;;4.20;3.70;;;;;;;9.53;100.00;98948.09;5072044;28;20234;-78
2023/09/24 01:23:17;;;;;;;4.80;3.70;;;;;;;9.48;100.00;98937.81;5072152;28;20229;-78
2023/09/24 01:25:44;;;;;;;6.90;3.80;;;;;;;9.48;100.00;98940.44;5072154;28;20216;-78
2023/09/24 01:28:11;;;;;;;4.33;3.43;;;;;;;9.53;100.00;98937.56;5072207;28;20301;-78
2023/09/24 01:30:38;;;;;;;5.17;3.70;;;;;;;9.52;100.00;98941.13;5072041;28;20210;-78
2023/09/24 01:33:06;;;;;;;5.13;3.63;;;;;;;9.54;100.00;98944.56;5072154;28;20628;-78
2023/09/24 01:35:34;;;;;;;4.20;3.37;;;;;;;9.54;100.00;98936.66;5072177;28;20690;-77
2023/09/24 01:38:05;;;;;;;4.67;3.37;;;;;;;9.53;100.00;98934.91;5071861;28;20263;-77
2023/09/24 01:40:37;;;;;;;4.80;3.67;;;;;;;9.48;100.00;98939.59;5071724;28;20204;-77
2023/09/24 01:43:05;;;;;;;4.03;3.57;;;;;;;9.47;100.00;98938.75;5071977;28;20257;-78
2023/09/24 01:45:33;;;;;;;4.60;3.40;;;;;;;9.40;100.00;98937.34;5072358;28;20210;-78
2023/09/24 01:48:00;;;;;;;4.60;3.53;;;;;;;9.36;100.00;98945.53;5071814;28;20218;-78
2023/09/24 01:50:27;;;;;;;6.70;4.03;;;;;;;9.30;100.00;98940.56;5071740;28;20222;-78
2023/09/24 01:52:53;;;;;;;5.77;3.97;;;;;;;9.29;100.00;98944.09;5071692;28;20210;-78
2023/09/24 01:55:21;;;;;;;4.90;4.10;;;;;;;9.26;100.00;98933.72;5071790;28;20615;-80
2023/09/24 01:57:50;;;;;;;5.00;4.07;;;;;;;9.27;100.00;98932.78;5071821;28;20695;-78
2023/09/24 02:00:18;;;;;;;5.53;4.00;;;;;;;9.33;100.00;98943.03;5071688;28;20325;-77
2023/09/24 02:02:44;;;;;;;4.10;3.60;;;;;;;9.33;100.00;98945.66;5071793;28;20257;-78
2023/09/24 02:05:12;;;;;;;3.60;3.20;;;;;;;9.30;100.00;98943.19;5071716;28;20209;-78
2023/09/24 02:07:40;;;;;;;4.23;3.43;;;;;;;9.26;100.00;98942.50;5071579;28;20215;-77
2023/09/24 02:10:07;;;;;;;5.43;3.87;;;;;;;9.25;100.00;98939.94;5071799;28;20521;-77
2023/09/24 02:12:36;;;;;;;6.03;4.10;;;;;;;9.24;100.00;98943.50;5070225;28;20724;-78
2023/09/24 02:15:11;;;;;;;5.40;3.97;;;;;;;9.21;100.00;98946.28;5071749;28;20205;-78
2023/09/24 02:17:41;;;;;;;5.53;3.97;;;;;;;9.19;100.00;98937.59;5071505;28;20208;-78
2023/09/24 02:20:14;;;;;;;4.37;3.50;;;;;;;9.18;100.00;98943.81;5071634;28;20401;-78
2023/09/24 02:22:41;;;;;;;5.50;3.67;;;;;;;9.13;100.00;98943.19;5071109;28;20619;-77
2023/09/24 02:25:12;;;;;;;5.70;4.07;;;;;;;9.13;100.00;98937.91;5071641;28;20227;-78
2023/09/24 02:27:39;;;;;;;4.07;3.60;;;;;;;9.12;100.00;98941.50;5071615;28;20219;-77
2023/09/24 02:30:08;;;;;;;6.47;3.97;;;;;;;9.10;100.00;98943.31;5074826;28;20215;-78
2023/09/24 02:32:35;;;;;;;6.80;3.97;;;;;;;9.12;100.00;98946.75;5074855;28;20229;-77
2023/09/24 02:35:01;;;;;;;6.87;3.90;;;;;;;9.11;100.00;98945.06;5075280;28;20208;-77
2023/09/24 02:37:29;;;;;;;5.93;3.73;;;;;;;9.07;100.00;98954.88;5075077;28;20577;-78
2023/09/24 02:39:56;;;;;;;5.53;4.03;;;;;;;9.03;100.00;98952.47;5075298;28;20203;-77
2023/09/24 02:42:25;;;;;;;4.03;3.53;;;;;;;9.01;100.00;98962.25;5074605;28;20726;-78
2023/09/24 02:44:51;;;;;;;6.03;3.40;;;;;;;8.97;100.00;98960.69;5074976;28;20234;-77
2023/09/24 02:47:19;;;;;;;6.20;3.73;;;;;;;8.97;100.00;98963.34;5075213;28;20619;-77
2023/09/24 02:49:46;;;;;;;4.93;3.77;;;;;;;8.94;100.00;98958.22;5074988;28;20225;-77
2023/09/24 02:52:13;;;;;;;4.67;3.87;;;;;;;8.93;100.00;98973.19;5074868;28;20241;-77
2023/09/24 02:54:40;;;;;;;5.87;3.87;;;;;;;8.88;100.00;98966.44;5075029;28;20407;-77
2023/09/24 02:57:07;;;;;;;6.70;3.90;;;;;;;8.82;100.00;98959.66;5074807;28;20226;-78
2023/09/24 02:59:33;;;;;;;5.20;3.90;;;;;;;8.86;100.00;98960.38;5074586;28;20681;-77
2023/09/24 03:02:00;;;;;;;3.77;3.47;;;;;;;8.86;100.00;98960.38;5074301;28;20254;-78
2023/09/24 03:04:28;;;;;;;4.37;3.83;;;;;;;8.81;100.00;98967.69;5075894;28;20265;-78
2023/09/24 03:06:54;;;;;;;5.47;3.23;;;;;;;8.76;100.00;98969.69;5076171;28;20203;-78
2023/09/24 03:09:21;;;;;;;5.10;3.37;;;;;;;8.74;100.00;98971.50;5075798;28;20220;-78
2023/09/24 03:11:47;;;;;;;4.70;3.70;;;;;;;8.74;100.00;98977.66;5075475;28;20719;-78
2023/09/24 03:14:14;;;;;;;4.97;3.70;;;;;;;8.72;100.00;98983.91;5075941;28;20207;-78
2023/09/24 03:16:41;;;;;;;5.90;4.17;;;;;;;8.74;100.00;98976.78;5075532;28;20217;-78
2023/09/24 03:19:08;;;;;;;4.50;3.40;;;;;;;8.68;100.00;98982.34;5075845;28;20215;-79
2023/09/24 03:21:36;;;;;;;3.87;3.20;;;;;;;8.61;100.00;98986.22;5074178;28;20230;-78
2023/09/24 03:24:02;;;;;;;4.43;3.17;;;;;;;8.58;100.00;98981.94;5075662;28;20226;-78
2023/09/24 03:26:29;;;;;;;3.67;3.10;;;;;;;8.47;100.00;98989.53;5075909;28;20314;-79
2023/09/24 03:28:55;;;;;;;4.80;3.53;;;;;;;8.43;100.00;99001.13;5075890;28;20650;-78
2023/09/24 03:31:22;;;;;;;3.93;3.30;;;;;;;8.41;100.00;99004.75;5075417;28;20266;-79
2023/09/24 03:33:49;;;;;;;3.83;3.27;;;;;;;8.38;100.00;99004.91;5076917;28;20688;-78
2023/09/24 03:36:15;;;;;;;3.90;3.27;;;;;;;8.43;100.00;99009.03;5075941;28;20211;-78
2023/09/24 03:38:45;;;;;;;4.13;3.20;;;;;;;8.41;100.00;99015.28;5075116;28;20245;-78
2023/09/24 03:41:11;;;;;;;4.23;3.20;;;;;;;8.37;100.00;99014.56;5075264;28;20231;-78
2023/09/24 03:43:38;;;;;;;5.57;3.33;;;;;;;8.34;100.00;99013.88;5075205;28;20355;-78
2023/09/24 03:46:04;;;;;;;6.07;3.40;;;;;;;8.36;100.00;99019.91;5075052;28;20220;-78
2023/09/24 03:48:31;;;;;;;3.87;3.00;;;;;;;8.35;100.00;99013.81;5075240;28;20218;-78
2023/09/24 03:50:57;;;;;;;5.23;3.40;;;;;;;8.30;100.00;99010.53;5074769;28;20734;-78
2023/09/24 03:53:24;;;;;;;3.73;3.10;;;;;;;8.24;100.00;99008.16;5074881;28;20208;-79
2023/09/24 03:55:52;;;;;;;4.10;3.37;;;;;;;8.31;100.00;99024.53;5075213;28;20216;-78
2023/09/24 03:58:19;;;;;;;5.60;3.00;;;;;;;8.29;100.00;99021.13;5075170;28;20203;-79
2023/09/24 04:00:46;;;;;;;4.13;3.07;;;;;;;8.27;100.00;99017.72;5074814;28;20234;-78
2023/09/24 04:03:14;;;;;;;3.57;3.03;;;;;;;8.23;100.00;99031.94;5075090;28;20205;-78
2023/09/24 04:05:40;;;;;;;4.07;3.20;;;;;;;8.20;100.00;99032.09;5074704;28;20241;-78
2023/09/24 04:08:08;;;;;;;4.00;3.03;;;;;;;8.14;100.00;99045.50;5074853;28;20216;-78
2023/09/24 04:10:35;;;;;;;3.37;2.90;;;;;;;8.13;100.00;99047.25;5074585;28;20214;-78
2023/09/24 04:13:03;;;;;;;5.70;2.60;;;;;;;8.07;100.00;99049.31;5074194;28;20219;-78
2023/09/24 04:15:31;;;;;;;3.47;2.63;;;;;;;7.98;100.00;99049.72;5074740;28;20218;-78
2023/09/24 04:17:59;;;;;;;2.90;2.60;;;;;;;7.99;100.00;99052.31;5074481;28;20245;-78
2023/09/24 04:20:29;;;;;;;2.90;2.57;;;;;;;7.97;100.00;99050.66;5074284;28;20207;-78
2023/09/24 04:22:55;;;;;;;3.63;2.70;;;;;;;7.96;100.00;99055.06;5074555;28;20614;-78
2023/09/24 04:25:24;;;;;;;5.83;3.20;;;;;;;7.95;100.00;99047.25;5074253;28;20286;-78
2023/09/24 04:27:51;;;;;;;4.10;3.13;;;;;;;7.93;100.00;99063.09;5074042;28;20215;-78
2023/09/24 04:30:21;;;;;;;4.20;3.47;;;;;;;7.91;100.00;99057.03;5074454;28;20246;-78
2023/09/24 04:32:51;;;;;;;3.87;3.27;;;;;;;8.00;100.00;99063.66;5074028;28;20215;-78
2023/09/24 04:35:19;;;;;;;5.63;3.50;;;;;;;8.03;100.00;99064.38;5073827;28;20252;-78
2023/09/24 04:37:45;;;;;;;3.77;3.00;;;;;;;8.03;100.00;99071.44;5074672;28;20306;-78
2023/09/24 04:40:14;;;;;;;4.13;3.10;;;;;;;8.00;100.00;99066.31;5073933;28;20211;-78
2023/09/24 04:42:41;;;;;;;4.23;3.33;;;;;;;7.98;100.00;99073.41;5073262;28;20227;-78
2023/09/24 04:45:10;;;;;;;3.93;2.87;;;;;;;7.98;100.00;99070.78;5073669;28;20510;-78
2023/09/24 04:47:38;;;;;;;3.93;2.87;;;;;;;7.97;100.00;99072.56;5073541;28;20209;-78
2023/09/24 04:50:05;;;;;;;4.13;3.10;;;;;;;7.92;100.00;99074.56;5073402;28;20222;-78
2023/09/24 04:52:33;;;;;;;3.27;2.90;;;;;;;7.88;100.00;99078.22;5072667;28;20660;-78
2023/09/24 04:54:59;;;;;;;3.40;3.07;;;;;;;7.83;100.00;99074.09;5073725;28;20214;-78
2023/09/24 04:57:26;;;;;;;3.80;3.20;;;;;;;7.79;100.00;99085.66;5073525;28;20219;-78
2023/09/24 04:59:53;;;;;;;3.30;3.00;;;;;;;7.78;100.00;99086.59;5073295;28;20735;-78
2023/09/24 05:02:21;;;;;;;3.73;2.83;;;;;;;7.79;100.00;99077.78;5072588;28;20235;-78
2023/09/24 05:04:49;;;;;;;4.07;2.90;;;;;;;7.72;100.00;99084.22;5073228;28;20276;-78
2023/09/24 05:07:15;;;;;;;2.97;2.67;;;;;;;7.72;100.00;99077.19;5073161;28;20211;-78
2023/09/24 05:09:41;;;;;;;4.00;2.90;;;;;;;7.77;100.00;99092.78;5073507;28;20200;-78
2023/09/24 05:12:08;;;;;;;3.57;2.97;;;;;;;7.71;100.00;99090.41;5073010;28;20231;-78
2023/09/24 05:14:34;;;;;;;4.13;3.00;;;;;;;7.72;100.00;99102.66;5073447;28;20358;-78
2023/09/24 05:17:01;;;;;;;3.20;2.63;;;;;;;7.71;100.00;99106.22;5073243;28;20210;-78
2023/09/24 05:19:27;;;;;;;5.47;3.13;;;;;;;7.77;100.00;99100.69;5072835;28;20221;-78
2023/09/24 05:21:55;;;;;;;5.43;3.20;;;;;;;7.84;100.00;99100.34;5072364;28;20737;-78
2023/09/24 05:24:22;;;;;;;4.27;3.30;;;;;;;7.91;100.00;99098.31;5072714;28;20231;-78
2023/09/24 05:26:48;;;;;;;5.53;3.53;;;;;;;7.92;100.00;99094.75;5073080;28;20586;-78
2023/09/24 05:29:15;;;;;;;5.53;3.77;;;;;;;7.97;100.00;99105.94;5072387;28;20210;-78
2023/09/24 05:31:41;;;;;;;4.20;3.60;;;;;;;7.99;100.00;99107.59;5072532;28;20246;-78
2023/09/24 05:34:08;;;;;;;4.23;3.57;;;;;;;8.05;100.00;99102.06;5073014;28;20199;-78
2023/09/24 05:36:34;;;;;;;6.07;3.97;;;;;;;8.11;100.00;99106.19;5072928;28;20210;-78
2023/09/24 05:39:04;;;;;;;4.97;3.20;;;;;;;8.15;100.00;99110.41;5072755;28;20207;-78
2023/09/24 05:41:30;;;;;;;6.80;3.40;;;;;;;8.13;100.00;99104.31;5072256;28;20230;-78
2023/09/24 05:44:01;;;;;;;3.83;3.17;;;;;;;8.15;100.00;99110.41;5072685;28;20223;-78
2023/09/24 05:46:27;;;;;;;4.50;3.40;;;;;;;8.20;100.00;99111.09;5073243;28;20638;-78
2023/09/24 05:48:55;;;;;;;3.50;3.20;;;;;;;8.24;100.00;99112.66;5072918;28;20213;-78
2023/09/24 05:51:21;;;;;;;3.27;2.90;;;;;;;8.20;100.00;99111.09;5072714;28;20224;-78
2023/09/24 05:53:48;;;;;;;3.10;2.80;;;;;;;8.17;100.00;99126.97;5072028;28;20580;-78
2023/09/24 05:56:16;;;;;;;3.87;3.33;;;;;;;8.21;100.00;99108.38;5072801;28;20206;-79
2023/09/24 05:58:42;;;;;;;3.53;2.93;;;;;;;8.24;100.00;99113.50;5072512;28;20215;-78
2023/09/24 06:01:14;;;;;;;3.57;2.83;;;;;;;8.32;100.00;99113.19;5071636;28;20390;-78
2023/09/24 06:03:40;;;;;;;4.83;3.03;;;;;;;8.36;100.00;99112.09;5073340;28;20214;-78
2023/09/24 06:06:09;;;;;;;3.93;3.00;;;;;;;8.41;100.00;99116.25;5076144;28;20231;-81
2023/09/24 06:08:36;;;;;;;4.30;2.90;;;;;;;8.47;100.00;99126.53;5075694;28;20220;-78
2023/09/24 06:11:03;;;;;;;3.37;3.00;;;;;;;8.56;100.00;99125.25;5075065;28;20235;-77
2023/09/24 06:13:31;;;;;;;3.97;3.47;;;;;;;8.70;100.00;99120.19;5075686;28;20199;-78
2023/09/24 06:15:59;;;;;;;4.30;3.27;;;;;;;8.72;100.00;99120.97;5075384;28;20203;-78
2023/09/24 06:18:26;;;;;;;3.37;3.07;;;;;;;8.70;100.00;99133.38;5075716;28;20283;-78
2023/09/24 06:20:53;;;;;;;5.37;3.33;;;;;;;8.82;100.00;99130.16;5075049;28;20256;-77
2023/09/24 06:23:20;;;;;;;3.40;3.07;;;;;;;8.88;100.00;99129.88;5074691;28;20634;-78
2023/09/24 06:25:46;;;;;;;4.97;3.30;;;;;;;8.95;100.00;99134.81;5074760;28;20256;-77
2023/09/24 06:28:14;;;;;;;4.97;3.57;;;;;;;9.06;100.00;99131.66;5074766;28;20203;-77
2023/09/24 06:30:42;;;;;;;4.63;3.30;;;;;;;9.15;100.00;99144.41;5074694;28;20303;-77
2023/09/24 06:33:08;;;;;;;5.40;4.20;;;;;;;9.19;100.00;99135.41;5074814;28;20215;-78
2023/09/24 06:35:37;;;;;;;4.03;3.30;;;;;;;9.29;100.00;99141.94;5075080;28;20203;-78
2023/09/24 06:38:04;;;;;;;4.83;3.40;;;;;;;9.36;100.00;99146.03;5075273;28;20211;-78
2023/09/24 06:40:31;;;;;;;4.07;3.67;;;;;;;9.44;100.00;99135.94;5074671;28;20205;-78
2023/09/24 06:42:57;;;;;;;5.20;3.60;;;;;;;9.49;100.00;99141.84;5074005;28;20223;-78
2023/09/24 06:45:24;;;;;;;3.50;3.20;;;;;;;9.50;100.00;99144.44;5075151;28;20584;-77
2023/09/24 06:47:52;;;;;;;4.97;3.23;;;;;;;9.53;100.00;99146.91;5076169;28;20207;-80
2023/09/24 06:50:18;;;;;;;3.80;3.20;;;;;;;9.52;100.00;99141.69;5076828;28;20647;-80
2023/09/24 06:52:45;;;;;;;4.07;3.40;;;;;;;9.51;100.00;99140.84;5075531;28;20223;-80
2023/09/24 06:55:11;;;;;;;5.17;3.70;;;;;;;9.61;100.00;99147.38;5075882;28;20234;-81
2023/09/24 06:57:38;;;;;;;4.20;3.37;;;;;;;9.71;100.00;99142.50;5076026;28;20203;-79
2023/09/24 07:00:08;;;;;;;4.50;3.60;;;;;;;9.85;100.00;99146.16;5075813;28;20217;-79
2023/09/24 07:02:35;;;;;;;4.07;3.53;;;;;;;10.03;100.00;99144.38;5075574;28;20231;-79
2023/09/24 07:05:04;;;;;;;4.57;3.73;;;;;;;10.15;100.00;99149.06;5075831;28;20229;-82
2023/09/24 07:07:31;;;;;;;4.83;3.70;;;;;;;10.29;100.00;99159.78;5076329;28;20762;-81
2023/09/24 07:09:58;;;;;;;5.40;3.57;;;;;;;10.40;100.00;99160.91;5077021;28;20667;-82
2023/09/24 07:12:24;;;;;;;4.60;4.10;;;;;;;10.51;100.00;99161.22;5076906;28;20472;-79
2023/09/24 07:14:51;;;;;;;5.17;4.10;;;;;;;10.64;100.00;99164.91;5075229;28;20205;-79
2023/09/24 07:17:17;;;;;;;5.77;4.23;;;;;;;10.77;100.00;99163.31;5075038;28;20676;-79
2023/09/24 07:19:45;;;;;;;5.80;3.80;;;;;;;10.85;100.00;99162.91;5075720;28;20254;-80
2023/09/24 07:22:13;;;;;;;4.63;3.43;;;;;;;10.98;100.00;99164.81;5076240;28;20230;-79
2023/09/24 07:24:40;;;;;;;4.23;3.33;;;;;;;11.05;100.00;99175.91;5075441;28;20243;-79
2023/09/24 07:27:06;;;;;;;7.90;4.27;;;;;;;11.16;100.00;99173.53;5075416;28;20318;-79
2023/09/24 07:29:33;;;;;;;5.57;3.67;;;;;;;11.31;100.00;99172.69;5075971;28;20582;-79
2023/09/24 07:31:59;;;;;;;4.40;3.97;;;;;;;11.34;100.00;99177.81;5075772;28;20227;-79
2023/09/24 07:34:26;;;;;;;4.43;3.20;;;;;;;11.41;100.00;99173.88;5075835;28;20692;-79
2023/09/24 07:36:53;;;;;;;5.13;3.93;;;;;;;11.47;100.00;99178.81;5077264;28;20215;-79
2023/09/24 07:39:20;;;;;;;5.27;4.13;;;;;;;11.63;100.00;99179.72;5078992;28;20214;-79
2023/09/24 07:41:47;;;;;;;3.63;3.33;;;;;;;11.68;100.00;99175.00;5079889;28;20231;-79
2023/09/24 07:44:14;;;;;;;6.17;3.40;;;;;;;11.85;100.00;99185.47;5078819;28;20208;-79
2023/09/24 07:46:40;;;;;;;4.53;3.07;;;;;;;11.86;100.00;99177.44;5078336;28;20266;-79
2023/09/24 07:49:07;;;;;;;4.53;3.43;;;;;;;11.97;100.00;99184.75;5078337;28;20670;-80
2023/09/24 07:51:33;;;;;;;4.50;3.50;;;;;;;12.00;100.00;99196.06;5080267;28;20253;-80
2023/09/24 07:54:00;;;;;;;3.97;3.30;;;;;;;12.03;100.00;99187.03;5080450;28;20218;-83
2023/09/24 07:56:28;;;;;;;4.80;3.70;;;;;;;12.15;100.00;99184.53;5076589;28;20211;-80
2023/09/24 07:58:56;;;;;;;3.50;3.20;;;;;;;12.23;100.00;99181.47;5074999;28;20403;-80
2023/09/24 08:01:22;;;;;;;4.03;3.13;;;;;;;12.30;100.00;99177.50;5074941;28;20301;-79
2023/09/24 08:03:53;;;;;;;5.07;3.17;;;;;;;12.34;100.00;99179.84;5075320;28;20251;-79
2023/09/24 08:06:19;;;;;;;4.20;3.10;;;;;;;12.52;100.00;99183.19;5075372;28;20231;-80
2023/09/24 08:08:46;;;;;;;3.90;3.40;;;;;;;12.61;100.00;99177.34;5074807;28;20217;-80
2023/09/24 08:11:13;;;;;;;3.63;3.20;;;;;;;12.76;100.00;99181.69;5074459;28;20228;-79
2023/09/24 08:13:40;;;;;;;3.93;2.97;;;;;;;12.82;100.00;99186.63;5074914;28;20583;-79
2023/09/24 08:16:07;;;;;;;3.77;3.30;;;;;;;12.85;100.00;99189.13;5074750;28;20204;-79
2023/09/24 08:18:34;;;;;;;4.07;3.10;;;;;;;12.93;100.00;99187.69;5074497;28;20604;-79
2023/09/24 08:21:00;;;;;;;3.30;3.00;;;;;;;13.05;100.00;99178.13;5074219;28;20224;-79
2023/09/24 08:23:27;;;;;;;4.23;3.30;;;;;;;13.17;100.00;99193.28;5074540;28;20210;-79
2023/09/24 08:25:53;;;;;;;3.00;2.70;;;;;;;13.31;100.00;99193.28;5073082;28;20711;-80
2023/09/24 08:28:20;;;;;;;5.17;3.40;;;;;;;13.40;100.00;99179.44;5074000;28;20220;-80
2023/09/24 08:30:47;;;;;;;3.70;2.80;;;;;;;13.44;100.00;99192.41;5073728;28;20244;-79
2023/09/24 08:33:14;;;;;;;3.37;3.07;;;;;;;13.60;100.00;99193.13;5074084;28;20208;-80
2023/09/24 08:35:41;;;;;;;3.70;3.40;;;;;;;13.63;100.00;99189.44;5073529;28;20556;-80
2023/09/24 08:38:08;;;;;;;5.13;3.63;;;;;;;13.76;100.00;99190.31;5073876;28;20316;-80
2023/09/24 08:40:35;;;;;;;4.20;3.13;;;;;;;13.82;100.00;99192.59;5073716;28;20213;-80
2023/09/24 08:43:09;;;;;;;3.30;3.00;;;;;;;13.88;100.00;99193.03;5072054;28;20229;-80
2023/09/24 08:45:35;;;;;;;3.07;2.77;;;;;;;13.90;100.00;99196.44;5074258;28;20221;-80
2023/09/24 08:48:08;;;;;;;3.70;2.90;;;;;;;13.97;100.00;99195.09;5073740;28;20206;-80
2023/09/24 08:50:37;;;;;;;3.30;2.63;;;;;;;14.07;100.00;99198.00;5073671;28;20285;-80
2023/09/24 08:53:05;;;;;;;2.67;2.33;;;;;;;14.19;100.00;99186.56;5073099;28;20211;-80
2023/09/24 08:55:32;;;;;;;2.90;2.40;;;;;;;14.24;100.00;99182.63;5073733;28;20679;-80
2023/09/24 08:57:58;;;;;;;3.17;2.20;;;;;;;14.44;100.00;99189.28;5073671;28;20214;-80
2023/09/24 09:00:25;;;;;;;4.07;2.50;;;;;;;14.56;100.00;99178.66;5073101;28;20206;-80
2023/09/24 09:02:51;;;;;;;2.63;2.03;;;;;;;14.73;100.00;99172.16;5073056;28;20212;-80
2023/09/24 09:05:24;;;;;;;3.63;2.10;;;;;;;14.82;100.00;99172.38;5073232;28;20233;-80
2023/09/24 09:07:56;;;;;;;3.00;2.17;;;;;;;14.93;100.00;99159.16;5072849;28;20218;-80
2023/09/24 09:10:25;;;;;;;3.73;1.87;;;;;;;15.06;100.00;99167.13;5072667;28;20254;-80
2023/09/24 09:12:52;;;;;;;3.77;2.10;;;;;;;15.09;100.00;99174.91;5072632;28;20279;-80
2023/09/24 09:15:19;;;;;;;2.30;1.80;;;;;;;15.11;100.00;99162.34;5072773;28;20211;-80
2023/09/24 09:17:46;;;;;;;2.13;1.77;;;;;;;15.22;100.00;99151.78;5073128;28;20261;-81
2023/09/24 09:20:12;;;;;;;2.70;1.70;;;;;;;15.27;100.00;99146.97;5073012;28;20276;-79
2023/09/24 09:22:46;;;;;;;2.50;1.80;;;;;;;15.42;100.00;99152.06;5072679;28;20231;-79
2023/09/24 09:25:15;;;;;;;2.87;1.80;;;;;;;15.51;99.67;99155.88;5072799;28;20217;-79
2023/09/24 09:27:43;;;;;;;3.43;1.73;;;;;;;15.60;98.25;99145.41;5072684;28;20709;-79
2023/09/24 09:30:15;;;;;;;3.77;1.50;;;;;;;15.65;95.44;99135.22;5073215;28;20301;-79
2023/09/24 09:32:43;;;;;;;5.20;1.70;;;;;;;15.74;95.79;99139.03;5072741;28;20292;-79
2023/09/24 09:35:09;;;;;;;2.93;1.97;;;;;;;15.85;96.45;99139.09;5072947;28;20207;-79
2023/09/24 09:37:36;;;;;;;2.73;1.63;;;;;;;16.02;95.69;99136.00;5073183;28;20633;-79
2023/09/24 09:40:06;;;;;;;3.03;1.50;;;;;;;16.16;91.21;99121.50;5072564;28;20207;-79
2023/09/24 09:42:33;;;;;;;2.60;1.80;;;;;;;16.18;88.36;99122.25;5072748;28;20220;-79
2023/09/24 09:45:03;;;;;;;2.60;1.80;;;;;;;16.24;88.31;99115.59;5075276;28;20199;-78
2023/09/24 09:47:34;;;;;;;1.77;1.37;;;;;;;16.41;85.99;99105.34;5075298;28;20203;-79
2023/09/24 09:50:01;;;;;;;2.87;1.43;;;;;;;16.34;85.97;99112.09;5073881;28;20652;-79
2023/09/24 09:52:35;;;;;;;2.73;1.40;;;;;;;16.41;87.43;99118.69;5073001;28;20235;-79
2023/09/24 09:55:06;;;;;;;3.17;1.50;;;;;;;16.48;85.59;99109.25;5073507;28;20207;-79
2023/09/24 09:57:34;;;;;;;2.60;1.77;;;;;;;16.55;85.63;99110.47;5073816;28;20211;-81
2023/09/24 10:00:05;;;;;;;2.03;1.23;;;;;;;16.75;77.15;99083.06;5073260;28;20569;-78
2023/09/24 10:02:32;;;;;;;3.23;1.40;;;;;;;16.76;79.04;99090.09;5073288;28;20230;-78
2023/09/24 10:05:01;;;;;;;2.67;1.40;;;;;;;16.80;79.36;99099.56;5073164;28;20204;-81
2023/09/24 10:07:27;;;;;;;3.43;1.37;;;;;;;16.88;80.69;99102.47;5073019;28;20235;-80
2023/09/24 10:09:54;;;;;;;2.20;1.47;;;;;;;16.88;77.62;99085.63;5073315;28;20588;-78
2023/09/24 10:12:35;;;;;;;2.17;1.13;;;;;;;16.98;73.91;99071.41;5073077;28;20235;-80
2023/09/24 10:15:26;;;;;;;3.17;1.30;;;;;;;16.99;71.13;99051.72;5073167;28;20635;-80
2023/09/24 10:18:23;;;;;;;2.37;1.43;;;;;;;17.13;73.57;99072.00;5073095;28;20302;-80
2023/09/24 10:21:05;;;;;;;1.90;1.17;;;;;;;17.17;72.27;99071.63;5072437;28;20227;-80
2023/09/24 10:23:35;;;;;;;3.60;1.30;;;;;;;17.18;71.16;99067.97;5072184;28;20704;-79
2023/09/24 10:26:05;;;;;;;2.67;1.37;;;;;;;17.22;65.43;99036.50;5072731;28;20565;-79
2023/09/24 10:28:52;;;;;;;1.17;1.00;;;;;;;17.26;67.95;99059.34;5072494;28;20684;-79
2023/09/24 10:31:21;;;;;;;2.63;1.40;;;;;;;17.40;65.60;99045.72;5072475;28;20277;-79
2023/09/24 10:33:58;;;;;;;3.57;1.30;;;;;;;17.45;65.10;99048.88;5072853;28;20207;-79
2023/09/24 10:36:29;;;;;;;2.70;1.70;;;;;;;17.42;62.16;99033.94;5072720;28;20211;-79
2023/09/24 10:39:04;;;;;;;2.27;1.30;;;;;;;17.48;60.62;99020.06;5072744;28;20214;-81
2023/09/24 10:41:30;;;;;;;2.90;1.60;;;;;;;17.47;61.74;99037.06;5071981;28;20326;-79
2023/09/24 10:44:24;;;;;;;1.80;1.17;;;;;;;17.57;61.08;99032.69;5072305;28;20584;-80
2023/09/24 10:46:51;;;;;;;1.97;0.93;;;;;;;17.59;60.35;99025.38;5072486;28;20234;-79
2023/09/24 10:49:18;;;;;;;2.40;1.10;;;;;;;17.63;61.52;99032.13;5073354;28;20219;-79
2023/09/24 10:51:45;;;;;;;2.40;1.17;;;;;;;17.69;60.37;99023.59;5076119;28;20309;-81
2023/09/24 10:54:12;;;;;;;1.50;1.03;;;;;;;17.72;60.42;99023.34;5076508;28;20212;-81
2023/09/24 10:56:39;;;;;;;2.27;1.20;;;;;;;17.83;60.70;99025.97;5076391;28;20207;-79
2023/09/24 10:59:05;;;;;;;2.10;1.17;;;;;;;17.94;60.31;99025.94;5076329;28;20306;-79
2023/09/24 11:01:33;;;;;;;3.17;1.30;;;;;;;18.08;61.05;99038.97;5075517;28;20238;-79
2023/09/24 11:04:00;;;;;;;2.63;1.33;;;;;;;18.07;59.83;99026.56;5076029;28;20211;-79
2023/09/24 11:06:30;;;;;;;1.53;1.23;;;;;;;18.02;60.03;99034.13;5076072;28;20705;-79
2023/09/24 11:09:15;;;;;;;2.30;1.30;;;;;;;18.15;58.76;99024.09;5076105;28;20214;-79
2023/09/24 11:11:42;;;;;;;1.60;1.23;;;;;;;18.11;58.03;99011.09;5075800;28;20239;-81
2023/09/24 11:14:22;;;;;;;2.40;1.47;;;;;;;18.13;56.87;99004.66;5075032;28;20683;-79
2023/09/24 11:16:51;;;;;;;2.43;1.37;;;;;;;18.15;58.45;99018.72;5076379;28;20506;-79
2023/09/24 11:19:41;;;;;;;1.73;1.10;;;;;;;18.28;60.32;99034.59;5074712;28;20257;-79
2023/09/24 11:22:16;;;;;;;2.67;1.50;;;;;;;18.24;58.50;99014.41;5075641;28;20238;-80
2023/09/24 11:24:42;;;;;;;3.20;1.37;;;;;;;18.28;58.58;99016.69;5076158;28;20218;-79
2023/09/24 11:27:09;;;;;;;1.53;1.07;;;;;;;18.43;57.54;98995.81;5075730;28;20231;-81
2023/09/24 11:29:36;;;;;;;2.10;1.00;;;;;;;18.47;59.08;99014.13;5074575;28;20314;-81
2023/09/24 11:32:04;;;;;;;2.33;1.27;;;;;;;18.44;53.79;98966.25;5075510;28;20227;-81
2023/09/24 11:34:31;;;;;;;1.47;1.10;;;;;;;18.46;55.41;98985.69;5075344;28;20215;-79
2023/09/24 11:36:58;;;;;;;2.90;1.20;;;;;;;18.57;54.78;98976.69;5074504;28;20215;-79